M I D A S
Marine Information and Data Acquisition System
Tripno 1824 of the Zeeleeuw from 2009-12-10 09:05:04 to 2009-12-10 17:14:51
Back to CruiseResearch ActivitiesStationsMapUnderway DataData graphs

EquipmentUnitsComment
TimeDGPSUTC
LatitudeDGPSDM.mWGS84
LongitudeDGPSDM.mWGS84
TemperatureSBE03/SBE38deg celciusITS90
ConductivitySBE21S/mITS90
SalinitySBE21 Practical Salinity Units
ChlorophylAChelsea fluorimeterg/lCalibrated in Aceton
Missing or incorrect values are displayed as -999
Sea surface data collected by the RV Zeeleeuw from 2009-12-10 09:10:59 to 2009-12-10 17:22:13
Time Latitude Longitude Temperature Conductivity Salinity ChlorophylA
2009-12-10 09:12:07 51°13.68 2°55.895 17.3388 3.707646 26.519542 0.044153
2009-12-10 09:13:07 51°13.715 2°55.796 17.2953 3.707853 26.518239 0.044153
2009-12-10 09:14:07 51°13.759 2°55.708 17.2698 3.708164 26.51825 0.044153
2009-12-10 09:15:07 51°13.822 2°55.645 17.2603 3.708579 26.520065 0.044153
2009-12-10 09:16:07 51°13.896 2°55.624 17.2293 3.708786 26.519744 0.044153
2009-12-10 09:17:07 51°13.935 2°55.633 17.1245 3.70889 26.516637 0.044153
2009-12-10 09:18:05 51°13.936 2°55.646 17.0806 3.709201 26.517139 0.044153
2009-12-10 09:19:04 51°13.945 2°55.584 17.1824 3.709511 26.521569 0.044153
2009-12-10 09:20:04 51°14.036 2°55.504 17.1658 3.709719 26.518303 0.044153
2009-12-10 09:21:04 51°14.161 2°55.384 17.0933 3.71003 26.519296 0.044153
2009-12-10 09:22:04 51°14.28 2°55.206 17.0287 3.71034 26.519797 0.044153
2009-12-10 09:23:04 51°14.394 2°54.991 16.9785 3.710859 26.523906 0.044153
2009-12-10 09:24:04 51°14.54 2°54.851 16.9152 3.710962 26.522764 0.044153
2009-12-10 09:25:04 51°14.694 2°54.727 16.8859 3.711481 26.5254 0.044153
2009-12-10 09:26:04 51°14.847 2°54.605 16.9083 3.711584 26.525731 0.148626
2009-12-10 09:27:04 51°14.994 2°54.483 16.8676 3.712102 26.528858 0.148626
2009-12-10 09:28:04 51°15.148 2°54.35 16.8622 3.712517 26.530671 0.148626
2009-12-10 09:29:04 51°15.303 2°54.213 16.8698 3.712828 26.532154 0.148626
2009-12-10 09:30:03 51°15.452 2°54.08 10.7243 3.679416 30.023494 -0.129967
2009-12-10 09:31:03 51°15.605 2°53.94 10.3237 3.587223 31.884249 -0.199615
2009-12-10 09:32:04 51°15.763 2°53.805 10.2156 3.587849 32.178367 -0.199615
2009-12-10 09:33:03 51°15.915 2°53.675 10.1766 3.601114 32.419317 -0.199615
2009-12-10 09:34:04 51°16.071 2°53.542 10.1192 3.611374 32.589567 -0.199615
2009-12-10 09:35:04 51°16.221 2°53.415 10.0919 3.622566 32.748319 -0.234439
2009-12-10 09:36:03 51°16.374 2°53.28 10.0976 3.627126 32.811031 -0.234439
2009-12-10 09:37:03 51°16.532 2°53.143 10.0976 3.632826 32.87482 -0.234439
2009-12-10 09:38:03 51°16.687 2°53.016 10.1212 3.640391 32.948548 -0.269263
2009-12-10 09:39:03 51°16.84 2°52.887 10.1513 3.64692 33.000537 -0.269263
2009-12-10 09:40:03 51°16.995 2°52.761 10.1811 3.653241 33.037475 -0.269263
2009-12-10 09:41:04 51°17.15 2°52.63 10.2188 3.663501 33.113165 -0.304087
2009-12-10 09:42:03 51°17.322 2°52.572 10.2427 3.67884 33.23902 -0.304087
2009-12-10 09:43:03 51°17.507 2°52.575 10.2557 3.691173 33.346764 -0.304087
2009-12-10 09:44:03 51°17.692 2°52.581 10.2635 3.697392 33.401958 -0.304087
2009-12-10 09:45:04 51°17.871 2°52.593 10.2876 3.704025 33.456416 -0.304087
2009-12-10 09:46:03 51°18.05 2°52.614 10.3136 3.713146 33.524416 -0.304087
2009-12-10 09:47:03 51°18.218 2°52.733 10.3342 3.717706 33.552262 -0.304087
2009-12-10 09:48:03 51°18.338 2°52.957 10.3352 3.720401 33.568707 -0.269263
2009-12-10 09:49:03 51°18.4 2°53.234 10.3382 3.726827 33.621805 -0.304087
2009-12-10 09:50:04 51°18.478 2°53.511 10.3372 3.727138 33.63148 -0.304087
2009-12-10 09:51:03 51°18.566 2°53.771 10.3121 3.725273 33.62584 -0.304087
2009-12-10 09:52:03 51°18.657 2°54.028 10.3096 3.722267 33.609555 -0.304087
2009-12-10 09:53:03 51°18.755 2°54.282 10.2733 3.719572 33.598027 -0.304087
2009-12-10 09:54:03 51°18.853 2°54.531 10.2535 3.716256 33.589252 -0.304087
2009-12-10 09:55:03 51°18.941 2°54.791 10.2403 3.713354 33.577263 -0.304087
2009-12-10 09:56:04 51°19.019 2°55.068 10.2367 3.710452 33.557885 -0.304087
2009-12-10 09:57:03 51°19.101 2°55.326 10.2146 3.706409 33.536856 -0.304087
2009-12-10 09:58:03 51°19.179 2°55.593 10.1906 3.703611 33.520143 -0.304087
2009-12-10 09:59:03 51°19.244 2°55.869 10.1806 3.700502 33.507667 -0.304087
2009-12-10 10:00:03 51°19.305 2°56.144 10.1702 3.698325 33.492287 -0.304087
2009-12-10 10:01:03 51°19.365 2°56.421 10.1657 3.695631 33.474958 -0.304087
2009-12-10 10:02:03 51°19.422 2°56.697 10.1432 3.692936 33.458441 -0.304087
2009-12-10 10:03:03 51°19.484 2°56.972 10.1398 3.690242 33.444375 -0.269263
2009-12-10 10:04:03 51°19.548 2°57.243 10.1255 3.68765 33.419878 -0.269263
2009-12-10 10:05:03 51°19.601 2°57.524 10.1276 3.685992 33.415436 -0.269263
2009-12-10 10:06:03 51°19.645 2°57.807 10.1182 3.684956 33.414809 -0.269263
2009-12-10 10:07:03 51°19.689 2°58.088 10.1115 3.68392 33.405989 -0.269263
2009-12-10 10:08:03 51°19.732 2°58.37 10.1028 3.682676 33.40081 -0.269263
2009-12-10 10:09:03 51°19.763 2°58.656 10.1075 3.681432 33.393172 -0.269263
2009-12-10 10:10:03 51°19.761 2°58.946 10.0941 3.680292 33.380026 -0.234439
2009-12-10 10:11:03 51°19.763 2°59.235 10.0999 3.678116 33.367882 -0.234439
2009-12-10 10:12:03 51°19.8 2°59.519 10.0897 3.675318 33.346998 -0.164791
2009-12-10 10:13:03 51°19.863 2°59.795 10.0928 3.673556 33.32512 -0.095143
2009-12-10 10:14:03 51°19.928 3°0.068 10.0971 3.67169 33.304654 -0.095143
2009-12-10 10:15:03 51°19.991 3°0.342 10.0953 3.669928 33.286055 -0.095143
2009-12-10 10:16:03 51°20.07 3°0.602 10.0781 3.668477 33.277945 -0.060319
2009-12-10 10:17:03 51°20.149 3°0.865 10.0641 3.667026 33.273101 -0.095143
2009-12-10 10:18:03 51°20.225 3°1.125 10.0247 3.664643 33.267007 -0.095143
2009-12-10 10:19:03 51°20.304 3°1.383 10.0013 3.661223 33.262704 -0.095143
2009-12-10 10:20:03 51°20.376 3°1.642 9.9474 3.657078 33.251881 -0.129967
2009-12-10 10:21:03 51°20.445 3°1.906 9.8931 3.649099 33.217786 -0.164791
2009-12-10 10:22:03 51°20.517 3°2.166 9.8234 3.636249 33.144079 -0.164791
2009-12-10 10:23:03 51°20.589 3°2.426 9.7779 3.619047 33.03175 -0.164791
2009-12-10 10:24:03 51°20.663 3°2.684 9.703 3.600187 32.890873 -0.164791
2009-12-10 10:25:03 51°20.73 3°2.946 9.6617 3.582261 32.766534 -0.164791
2009-12-10 10:26:03 51°20.786 3°3.214 9.6303 3.56817 32.666301 -0.164791
2009-12-10 10:27:03 51°20.846 3°3.475 9.5825 3.558016 32.5857 -0.164791
2009-12-10 10:28:03 51°20.904 3°3.736 9.5621 3.547344 32.503 -0.129967
2009-12-10 10:29:03 51°20.964 3°4 9.5343 3.534911 32.410366 -0.129967
2009-12-10 10:30:03 51°21.023 3°4.264 9.5008 3.52341 32.315818 -0.129967
2009-12-10 10:31:03 51°21.08 3°4.528 9.503 3.511496 32.220196 -0.129967
2009-12-10 10:32:03 51°21.136 3°4.793 9.4517 3.499271 32.119714 -0.129967
2009-12-10 10:33:03 51°21.195 3°5.055 9.4078 3.489222 32.035723 -0.129967
2009-12-10 10:34:03 51°21.253 3°5.315 9.3743 3.476687 31.94953 -0.129967
2009-12-10 10:35:04 51°21.312 3°5.574 9.3301 3.46322 31.848876 -0.129967
2009-12-10 10:36:03 51°21.373 3°5.828 9.286 3.450582 31.75734 -0.095143
2009-12-10 10:37:03 51°21.436 3°6.083 9.2557 3.442709 31.694448 -0.095143
2009-12-10 10:38:03 51°21.534 3°6.307 9.2235 3.431418 31.616464 -0.095143
2009-12-10 10:39:03 51°21.65 3°6.513 9.1722 3.417952 31.513722 -0.060319
2009-12-10 10:40:03 51°21.748 3°6.742 9.1385 3.402726 31.399156 -0.025495
2009-12-10 10:41:03 51°21.828 3°6.992 9.1119 3.393715 31.335398 -0.025495
2009-12-10 10:42:03 51°21.89 3°7.251 9.0713 3.385843 31.280075 -0.025495
2009-12-10 10:43:04 51°21.944 3°7.516 9.0479 3.3788 31.232398 0.009329
2009-12-10 10:44:03 51°21.984 3°7.776 9.0263 3.373415 31.200877 0.044153
2009-12-10 10:45:03 51°22.019 3°8.043 9.0185 3.370411 31.180337 0.044153
2009-12-10 10:46:03 51°22.055 3°8.309 9.0107 3.367926 31.170631 0.044153
2009-12-10 10:47:03 51°22.087 3°8.577 9.0085 3.367926 31.175372 0.044153
2009-12-10 10:48:03 51°22.12 3°8.846 9.0088 3.369479 31.1929 0.009329
2009-12-10 10:49:03 51°22.153 3°9.113 9.006 3.37124 31.212558 0.044153
2009-12-10 10:50:03 51°22.179 3°9.332 9.0049 3.372379 31.222672 0.009329
2009-12-10 10:51:03 51°22.198 3°9.419 9.0045 3.367615 31.177715 0.009329
2009-12-10 10:52:03 51°22.215 3°9.46 9.007 3.361401 31.117085 0.009329
2009-12-10 10:53:03 51°22.27 3°9.563 9.0095 3.356118 31.0613 0.044153
2009-12-10 10:54:03 51°22.405 3°9.69 9.0168 3.348765 30.985859 0.044153
2009-12-10 10:55:03 51°22.524 3°9.882 9.0124 3.34369 30.929888 0.044153
2009-12-10 10:56:03 51°22.574 3°10.14 9.0106 3.341929 30.912619 0.044153
2009-12-10 10:57:03 51°22.62 3°10.41 9.0017 3.341722 30.908928 0.009329
2009-12-10 10:58:03 51°22.648 3°10.674 9.011 3.340583 30.901948 -0.025495
2009-12-10 10:59:03 51°22.654 3°10.941 9.0072 3.3498 30.990983 -0.060319
2009-12-10 11:00:03 51°22.646 3°11.206 9.021 3.352804 31.024149 -0.095143
2009-12-10 11:01:03 51°22.612 3°11.46 9.0268 3.370722 31.195378 -0.095143
2009-12-10 11:02:03 51°22.598 3°11.721 9.0217 3.376729 31.258621 -0.060319
2009-12-10 11:03:03 51°22.602 3°11.985 9.0238 3.374554 31.233127 -0.060319
2009-12-10 11:04:03 51°22.609 3°12.239 9.0157 3.373001 31.218764 -0.025495
2009-12-10 11:05:03 51°22.617 3°12.495 9.0234 3.375176 31.245048 -0.025495
2009-12-10 11:06:03 51°22.628 3°12.746 9.0286 3.381183 31.297208 -0.060319
2009-12-10 11:07:03 51°22.63 3°13.002 9.0317 3.384808 31.334425 -0.060319
2009-12-10 11:08:03 51°22.617 3°13.226 9.0444 3.388226 31.363164 -0.060319
2009-12-10 11:09:03 51°22.559 3°13.255 9.0451 3.391334 31.386322 -0.095143
2009-12-10 11:10:03 51°22.511 3°13.197 9.0443 3.392266 31.392711 -0.095143
2009-12-10 11:11:03 51°22.491 3°13.127 9.0416 3.391748 31.390575 -0.095143
2009-12-10 11:12:03 51°22.482 3°13.11 9.0396 3.391541 31.389243 -0.095143
2009-12-10 11:13:03 51°22.482 3°13.1 9.04 3.391437 31.38818 -0.095143
2009-12-10 11:14:03 51°22.488 3°13.084 9.0423 3.39123 31.386848 -0.095143
2009-12-10 11:15:03 51°22.494 3°13.066 9.0443 3.391334 31.385527 -0.095143
2009-12-10 11:16:03 51°22.499 3°13.047 9.0396 3.391126 31.384195 -0.095143
2009-12-10 11:17:03 51°22.499 3°13.029 9.0409 3.391126 31.3834 -0.095143
2009-12-10 11:18:03 51°22.494 3°13.01 9.0442 3.391023 31.382337 -0.129967
2009-12-10 11:19:03 51°22.488 3°12.99 9.0473 3.391023 31.382337 -0.129967
2009-12-10 11:20:03 51°22.483 3°12.972 9.0445 3.390712 31.378353 -0.095143
2009-12-10 11:21:03 51°22.479 3°12.955 9.0489 3.390401 31.373574 -0.129967
2009-12-10 11:22:03 51°22.476 3°12.939 9.05 3.390505 31.369871 -0.095143
2009-12-10 11:23:03 51°22.473 3°12.924 9.05 3.390091 31.368002 -0.129967
2009-12-10 11:24:03 51°22.469 3°12.907 9.0482 3.389573 31.364276 -0.095143
2009-12-10 11:25:03 51°22.466 3°12.891 9.1945 3.389573 31.359511 0.009329
2009-12-10 11:26:03 51°22.463 3°12.874 9.2513 3.395889 31.277898 -0.095143
2009-12-10 11:27:03 51°22.456 3°12.855 9.1362 3.402415 31.358789 -0.060319
2009-12-10 11:28:03 51°22.426 3°12.76 9.076 3.396408 31.360604 -0.060319
2009-12-10 11:29:03 51°22.479 3°12.684 9.0717 3.393715 31.365504 -0.060319
2009-12-10 11:30:03 51°22.522 3°12.812 9.0628 3.392162 31.364645 -0.025495
2009-12-10 11:31:03 51°22.584 3°12.985 9.0588 3.39009 31.351332 -0.060319
2009-12-10 11:32:03 51°22.622 3°13.179 9.0558 3.389883 31.351588 -0.025495
2009-12-10 11:33:03 51°22.599 3°13.269 9.056 3.389572 31.34602 -0.060319
2009-12-10 11:34:03 51°22.574 3°13.26 9.0504 3.389158 31.344944 -0.025495
2009-12-10 11:35:03 51°22.57 3°13.242 9.0436 3.387915 31.332194 0.009329
2009-12-10 11:36:03 51°22.567 3°13.226 9.0416 3.386258 31.320745 0.044153
2009-12-10 11:37:03 51°22.56 3°13.211 9.0474 3.386258 31.319159 0.044153
2009-12-10 11:38:03 51°22.552 3°13.192 9.0515 3.386569 31.319968 0.009329
2009-12-10 11:39:03 51°22.545 3°13.174 9.045 3.386569 31.319968 0.009329
2009-12-10 11:40:03 51°22.54 3°13.158 9.0432 3.386983 31.327389 0.009329
2009-12-10 11:41:03 51°22.534 3°13.143 9.0471 3.386983 31.328182 0.009329
2009-12-10 11:42:03 51°22.529 3°13.125 9.0399 3.386672 31.327374 0.009329
2009-12-10 11:43:03 51°22.523 3°13.107 9.0402 3.386569 31.327104 0.009329
2009-12-10 11:44:03 51°22.518 3°13.091 9.0418 3.386776 31.328436 0.009329
2009-12-10 11:45:03 51°22.512 3°13.076 9.0392 3.386569 31.327104 0.009329
2009-12-10 11:46:03 51°22.506 3°13.059 9.0413 3.386465 31.329214 0.009329
2009-12-10 11:47:03 51°22.499 3°13.041 9.0416 3.386465 31.327628 0.009329
2009-12-10 11:48:03 51°22.492 3°13.023 9.0379 3.386465 31.326042 0.009329
2009-12-10 11:49:03 51°22.487 3°13.004 9.0406 3.386258 31.325502 0.009329
2009-12-10 11:50:03 51°22.482 3°12.988 9.0391 3.385947 31.325487 0.009329
2009-12-10 11:51:03 51°22.479 3°12.972 9.036 3.385844 31.325217 0.009329
2009-12-10 11:52:03 51°22.475 3°12.955 9.0341 3.386051 31.32417 0.009329
2009-12-10 11:53:03 51°22.469 3°12.936 9.0377 3.386051 31.325756 0.009329
2009-12-10 11:54:03 51°22.463 3°12.917 9.0379 3.386051 31.325756 0.009329
2009-12-10 11:55:03 51°22.456 3°12.897 9.0373 3.386051 31.326549 0.009329
2009-12-10 11:56:04 51°22.451 3°12.878 9.0369 3.386051 31.324963 0.009329
2009-12-10 11:57:03 51°22.445 3°12.859 9.0403 3.385844 31.323631 0.009329
2009-12-10 11:58:03 51°22.439 3°12.839 9.0374 3.385533 31.320442 0.009329
2009-12-10 11:59:03 51°22.433 3°12.818 9.0386 3.385222 31.318047 0.009329
2009-12-10 12:00:03 51°22.429 3°12.801 9.0363 3.384912 31.314066 0.009329
2009-12-10 12:01:03 51°22.402 3°12.782 9.0334 3.384704 31.311941 0.044153
2009-12-10 12:02:03 51°22.378 3°12.81 9.0301 3.381908 31.289587 0.078977
2009-12-10 12:03:03 51°22.399 3°12.85 9.0284 3.380458 31.280254 0.078977
2009-12-10 12:04:03 51°22.442 3°12.906 9.0315 3.37445 31.218615 0.113802
2009-12-10 12:05:03 51°22.499 3°12.976 9.0365 3.377247 31.244933 0.078977
2009-12-10 12:06:03 51°22.574 3°13.067 9.0343 3.381286 31.284795 0.078977
2009-12-10 12:07:03 51°22.675 3°13.192 9.0381 3.382426 31.297279 0.078977
2009-12-10 12:08:03 51°22.795 3°13.355 9.0558 3.358293 31.045837 0.18345
2009-12-10 12:09:03 51°22.914 3°13.528 9.0724 3.400034 31.456533 0.113802
2009-12-10 12:10:03 51°23.033 3°13.703 9.0714 3.408631 31.529621 0.148626
2009-12-10 12:11:03 51°23.153 3°13.873 9.0543 3.402313 31.474345 0.18345
2009-12-10 12:12:03 51°23.275 3°14.043 9.0424 3.393716 31.39726 0.18345
2009-12-10 12:13:03 51°23.395 3°14.215 9.0301 3.385844 31.326803 0.218274
2009-12-10 12:14:03 51°23.519 3°14.376 9.0214 3.379319 31.269355 0.218274
2009-12-10 12:15:03 51°23.651 3°14.526 9.0206 3.374036 31.220691 0.253098
2009-12-10 12:16:04 51°23.789 3°14.671 9.0218 3.373622 31.219604 0.253098
2009-12-10 12:17:05 51°23.925 3°14.82 9.0255 3.377454 31.25735 0.218274
2009-12-10 12:18:05 51°24.064 3°14.953 9.0333 3.381494 31.294054 0.218274
2009-12-10 12:19:04 51°24.112 3°15.125 9.0439 3.388848 31.356835 0.218274
2009-12-10 12:20:04 51°24.126 3°15.3 9.0459 3.393094 31.399626 0.18345
2009-12-10 12:21:04 51°24.076 3°15.338 9.0428 3.393923 31.400976 0.148626
2009-12-10 12:22:04 51°24.015 3°15.347 9.0452 3.393612 31.401762 0.18345
2009-12-10 12:23:04 51°23.944 3°15.373 9.0382 3.393094 31.397241 0.218274
2009-12-10 12:24:04 51°23.877 3°15.351 9.0346 3.389573 31.364276 0.148626
2009-12-10 12:25:04 51°23.813 3°15.302 9.0327 3.386569 31.337418 0.18345
2009-12-10 12:26:04 51°23.762 3°15.244 9.0286 3.385222 31.323599 0.253098
2009-12-10 12:27:05 51°23.718 3°15.179 9.0253 3.381908 31.292757 0.35757
2009-12-10 12:28:04 51°23.684 3°15.111 9.0242 3.380872 31.284506 0.35757
2009-12-10 12:29:05 51°23.658 3°15.03 9.0224 3.379629 31.274128 0.35757
2009-12-10 12:30:05 51°23.643 3°14.946 9.0205 3.377661 31.256308 0.392394
2009-12-10 12:31:05 51°23.644 3°14.85 9.0188 3.376315 31.245657 0.392394
2009-12-10 12:32:05 51°23.664 3°14.743 9.0193 3.375486 31.238736 0.392394
2009-12-10 12:33:05 51°23.677 3°14.639 9.0175 3.375486 31.238736 0.392394
2009-12-10 12:34:04 51°23.69 3°14.54 9.0174 3.375072 31.235276 0.35757
2009-12-10 12:35:04 51°23.703 3°14.44 9.0182 3.375486 31.240319 0.35757
2009-12-10 12:36:05 51°23.717 3°14.34 9.0185 3.376004 31.245635 0.35757
2009-12-10 12:37:04 51°23.729 3°14.24 9.0201 3.376729 31.252284 0.322746
2009-12-10 12:38:05 51°23.738 3°14.131 9.0221 3.377351 31.257871 0.322746
2009-12-10 12:39:05 51°23.745 3°14.027 9.0215 3.378076 31.263728 0.35757
2009-12-10 12:40:05 51°23.747 3°13.937 9.0259 3.379008 31.270919 0.35757
2009-12-10 12:41:05 51°23.751 3°13.837 9.027 3.379629 31.276505 0.35757
2009-12-10 12:42:05 51°23.758 3°13.735 9.0265 3.380251 31.28209 0.392394
2009-12-10 12:43:04 51°23.764 3°13.638 9.0301 3.380976 31.287946 0.35757
2009-12-10 12:44:04 51°23.771 3°13.533 9.0303 3.382115 31.298847 0.35757
2009-12-10 12:45:05 51°23.779 3°13.425 9.0325 3.383151 31.308684 0.322746
2009-12-10 12:46:04 51°23.786 3°13.318 9.0345 3.384083 31.315872 0.253098
2009-12-10 12:47:05 51°23.793 3°13.209 9.0355 3.384497 31.319331 0.18345
2009-12-10 12:48:05 51°23.789 3°13.114 9.035 3.385222 31.325186 0.18345
2009-12-10 12:49:05 51°23.783 3°13.01 9.0372 3.38574 31.328914 0.148626
2009-12-10 12:50:05 51°23.778 3°12.912 9.0377 3.385947 31.330246 0.148626
2009-12-10 12:51:05 51°23.769 3°12.812 9.04 3.386258 31.334229 0.148626
2009-12-10 12:52:05 51°23.758 3°12.714 9.0419 3.386983 31.339289 0.113802
2009-12-10 12:53:05 51°23.739 3°12.611 9.0411 3.387294 31.34089 0.113802
2009-12-10 12:54:05 51°23.722 3°12.5 9.0429 3.387708 31.344348 0.148626
2009-12-10 12:55:04 51°23.703 3°12.401 9.043 3.388123 31.347806 0.113802
2009-12-10 12:56:05 51°23.681 3°12.303 9.0411 3.38833 31.349932 0.113802
2009-12-10 12:57:04 51°23.659 3°12.21 9.04 3.387605 31.344079 0.148626
2009-12-10 12:58:05 51°23.636 3°12.117 9.0418 3.388226 31.350457 0.113802
2009-12-10 12:59:05 51°23.615 3°12.024 9.0449 3.388537 31.352852 0.113802
2009-12-10 13:00:05 51°23.593 3°11.934 9.0445 3.38864 31.352327 0.113802
2009-12-10 13:01:05 51°23.571 3°11.853 9.0474 3.389883 31.364288 0.078977
2009-12-10 13:02:05 51°23.555 3°11.774 9.0464 3.390608 31.37014 0.078977
2009-12-10 13:03:05 51°23.535 3°11.727 9.0495 3.392162 31.38529 0.078977
2009-12-10 13:04:05 51°23.514 3°11.695 9.0518 3.392576 31.386363 0.044153
2009-12-10 13:05:05 51°23.478 3°11.638 9.0525 3.392887 31.389552 0.044153
2009-12-10 13:06:05 51°23.441 3°11.478 9.0547 3.393716 31.394876 0.078977
2009-12-10 13:07:04 51°23.324 3°11.402 9.0621 3.396512 31.42437 0.078977
2009-12-10 13:08:05 51°23.159 3°11.38 9.0694 3.400552 31.456276 0.078977
2009-12-10 13:09:05 51°23 3°11.421 9.0687 3.402831 31.475678 0.044153
2009-12-10 13:10:05 51°22.871 3°11.448 9.0702 3.402106 31.468238 0.044153
2009-12-10 13:11:05 51°22.772 3°11.433 9.0704 3.40397 31.484979 0.078977
2009-12-10 13:12:04 51°22.681 3°11.409 9.07 3.404074 31.486839 0.078977
2009-12-10 13:13:04 51°22.585 3°11.388 9.0691 3.403659 31.481791 0.078977
2009-12-10 13:14:05 51°22.488 3°11.369 9.0482 3.400655 31.456543 0.078977
2009-12-10 13:15:05 51°22.415 3°11.374 9.0404 3.389158 31.354466 0.044153
2009-12-10 13:16:05 51°22.409 3°11.417 9.0341 3.383565 31.3058 0.113802
2009-12-10 13:17:04 51°22.409 3°11.414 9.0364 3.378697 31.25981 0.113802
2009-12-10 13:18:05 51°22.407 3°11.404 9.0592 3.378593 31.257164 0.078977
2009-12-10 13:19:05 51°22.4 3°11.391 9.0524 3.380251 31.259126 0.044153
2009-12-10 13:20:05 51°22.389 3°11.376 9.0338 3.379422 31.25775 0.044153
2009-12-10 13:21:05 51°22.377 3°11.362 9.0331 3.377869 31.254475 0.044153
2009-12-10 13:22:04 51°22.365 3°11.349 9.0386 3.377351 31.24837 0.044153
2009-12-10 13:23:05 51°22.389 3°11.367 9.0319 3.377247 31.244933 0.078977
2009-12-10 13:24:05 51°22.479 3°11.366 9.0334 3.377972 31.257121 0.113802
2009-12-10 13:25:04 51°22.626 3°11.309 9.0395 3.378076 31.258976 0.078977
2009-12-10 13:26:05 51°22.788 3°11.244 9.0489 3.384083 31.310321 0.078977
2009-12-10 13:27:04 51°22.944 3°11.177 9.0535 3.389676 31.361368 0.078977
2009-12-10 13:28:04 51°23.103 3°11.1 9.0552 3.390505 31.367489 0.078977
2009-12-10 13:29:05 51°23.25 3°10.994 9.0595 3.388122 31.340664 0.044153
2009-12-10 13:30:04 51°23.382 3°10.818 9.0569 3.39123 31.370164 0.044153
2009-12-10 13:31:03 51°23.513 3°10.638 9.0646 3.392369 31.381854 0.044153
2009-12-10 13:32:04 51°23.651 3°10.454 9.0618 3.39703 31.424912 0.009329
2009-12-10 13:33:05 51°23.789 3°10.266 9.0605 3.395994 31.417464 0.009329
2009-12-10 13:34:04 51°23.924 3°10.088 9.0778 3.398377 31.43873 0.009329
2009-12-10 13:35:06 51°24.064 3°9.914 9.0992 3.407181 31.513146 0.113802
2009-12-10 13:36:06 51°24.196 3°9.749 9.1123 3.414846 31.576633 0.113802
2009-12-10 13:37:04 51°24.332 3°9.578 9.1189 3.420336 31.620172 0.078977
2009-12-10 13:38:04 51°24.462 3°9.392 9.1267 3.424168 31.654689 0.078977
2009-12-10 13:39:04 51°24.564 3°9.163 9.1422 3.428623 31.690775 0.009329
2009-12-10 13:40:05 51°24.628 3°8.892 9.1637 3.436081 31.750443 -0.025495
2009-12-10 13:41:04 51°24.685 3°8.628 9.1998 3.441881 31.787469 -0.060319
2009-12-10 13:42:06 51°24.746 3°8.361 9.2667 3.458974 31.926492 -0.060319
2009-12-10 13:43:05 51°24.803 3°8.129 9.3313 3.474512 32.02686 -0.129967
2009-12-10 13:44:05 51°24.862 3°7.893 9.3649 3.505488 32.289693 -0.164791
2009-12-10 13:45:04 51°24.925 3°7.664 9.3623 3.511704 32.334632 -0.164791
2009-12-10 13:46:07 51°25.029 3°7.493 9.3538 3.507146 32.290443 -0.060319
2009-12-10 13:47:07 51°25.161 3°7.375 9.3509 3.502795 32.25566 -0.164791
2009-12-10 13:48:06 51°25.304 3°7.345 9.3567 3.507042 32.297486 -0.199615
2009-12-10 13:49:04 51°25.449 3°7.387 9.3563 3.508596 32.31095 -0.199615
2009-12-10 13:50:04 51°25.572 3°7.531 9.3578 3.48166 32.033985 -0.095143
2009-12-10 13:51:04 51°25.677 3°7.727 9.3633 3.508285 32.30534 -0.199615
2009-12-10 13:52:04 51°25.778 3°7.93 9.3796 3.508907 32.305214 -0.199615
2009-12-10 13:53:04 51°25.87 3°8.141 9.3931 3.517402 32.376676 -0.199615
2009-12-10 13:54:04 51°25.96 3°8.357 9.4059 3.520821 32.40189 -0.199615
2009-12-10 13:55:04 51°26.052 3°8.574 9.4164 3.527245 32.455369 -0.199615
2009-12-10 13:56:04 51°26.15 3°8.785 9.4247 3.531804 32.492207 -0.129967
2009-12-10 13:57:04 51°26.246 3°8.998 9.4243 3.534601 32.515917 -0.199615
2009-12-10 13:58:04 51°26.335 3°9.221 9.4213 3.53657 32.536853 -0.164791
2009-12-10 13:59:04 51°26.43 3°9.441 9.4151 3.537813 32.552008 -0.164791
2009-12-10 14:00:04 51°26.529 3°9.657 9.4025 3.538642 32.568639 -0.164791
2009-12-10 14:01:04 51°26.628 3°9.871 9.3949 3.538746 32.57786 -0.164791
2009-12-10 14:02:04 51°26.724 3°10.091 9.3866 3.538228 32.580725 -0.164791
2009-12-10 14:03:04 51°26.82 3°10.314 9.3778 3.537088 32.57723 -0.164791
2009-12-10 14:04:04 51°26.916 3°10.535 9.3683 3.53398 32.553585 -0.164791
2009-12-10 14:05:04 51°26.995 3°10.773 9.3595 3.530146 32.521693 -0.164791
2009-12-10 14:06:05 51°27.042 3°11.038 9.3545 3.52652 32.48947 -0.164791
2009-12-10 14:07:04 51°27.082 3°11.297 9.3371 3.517921 32.4096 -0.164791
2009-12-10 14:08:04 51°27.124 3°11.561 9.3176 3.506524 32.310836 -0.129967
2009-12-10 14:09:04 51°27.163 3°11.828 9.3052 3.498858 32.24777 -0.129967
2009-12-10 14:10:04 51°27.208 3°12.09 9.2975 3.494921 32.217188 -0.095143
2009-12-10 14:11:04 51°27.253 3°12.351 9.3014 3.493574 32.208257 -0.129967
2009-12-10 14:12:04 51°27.296 3°12.614 9.3 3.49461 32.217245 -0.129967
2009-12-10 14:13:04 51°27.34 3°12.877 9.3015 3.496475 32.235528 -0.129967
2009-12-10 14:14:04 51°27.382 3°13.14 9.2964 3.497822 32.249318 -0.129967
2009-12-10 14:15:04 51°27.426 3°13.402 9.2905 3.497615 32.25287 -0.129967
2009-12-10 14:16:04 51°27.335 3°13.631 9.2848 3.499169 32.268786 -0.129967
2009-12-10 14:17:04 51°27.183 3°13.806 9.2778 3.498962 32.273154 -0.129967
2009-12-10 14:18:05 51°27.12 3°14.029 9.2716 3.496786 32.260602 -0.129967
2009-12-10 14:19:04 51°27.13 3°14.109 9.2654 3.496061 32.258851 -0.129967
2009-12-10 14:20:05 51°27.117 3°14.13 9.2728 3.496476 32.265533 -0.129967
2009-12-10 14:21:04 51°27.097 3°14.142 9.2917 3.498133 32.261419 -0.129967
2009-12-10 14:22:04 51°27.072 3°14.15 9.2698 3.498237 32.272217 -0.129967
2009-12-10 14:23:04 51°27.044 3°14.159 9.2678 3.49689 32.268968 -0.129967
2009-12-10 14:24:04 51°27.019 3°14.166 9.2655 3.49689 32.268968 -0.129967
2009-12-10 14:25:04 51°26.995 3°14.173 9.2624 3.496579 32.269842 -0.129967
2009-12-10 14:26:04 51°26.969 3°14.18 9.2638 3.496372 32.269342 -0.129967
2009-12-10 14:27:04 51°26.943 3°14.19 9.263 3.496372 32.26853 -0.129967
2009-12-10 14:28:04 51°26.919 3°14.2 9.2626 3.496372 32.26853 -0.129967
2009-12-10 14:29:04 51°26.926 3°14.26 9.2661 3.496786 32.267906 -0.129967
2009-12-10 14:30:04 51°27.032 3°14.325 9.2686 3.49689 32.274652 -0.129967
2009-12-10 14:31:04 51°27.131 3°14.366 9.2701 3.498548 32.286769 -0.129967
2009-12-10 14:32:04 51°27.138 3°14.397 9.2667 3.499895 32.300574 -0.129967
2009-12-10 14:33:04 51°27.13 3°14.423 9.2689 3.500723 32.309882 -0.129967
2009-12-10 14:34:04 51°27.111 3°14.443 9.2797 3.501552 32.311875 -0.129967
2009-12-10 14:35:04 51°27.092 3°14.466 9.2692 3.502485 32.321431 -0.129967
2009-12-10 14:36:04 51°27.14 3°14.484 9.2692 3.502174 32.32475 -0.129967
2009-12-10 14:37:04 51°27.153 3°14.377 9.2701 3.50321 32.336185 -0.095143
2009-12-10 14:38:04 51°27.12 3°14.3 9.2699 3.503624 32.337179 -0.129967
2009-12-10 14:39:04 51°27.076 3°14.214 9.2722 3.502692 32.326807 -0.129967
2009-12-10 14:40:04 51°27.043 3°14.11 9.2692 3.501552 32.312687 -0.129967
2009-12-10 14:41:04 51°27.024 3°14.013 9.2699 3.500516 32.302069 -0.129967
2009-12-10 14:42:04 51°27.007 3°13.923 9.2715 3.499894 32.294074 -0.129967
2009-12-10 14:43:04 51°27.007 3°13.831 9.272 3.499169 32.288266 -0.129967
2009-12-10 14:44:04 51°27.022 3°13.743 9.2746 3.499066 32.287205 -0.129967
2009-12-10 14:45:04 51°27.04 3°13.646 9.2775 3.499376 32.287953 -0.129967
2009-12-10 14:46:04 51°27.054 3°13.556 9.278 3.499791 32.288951 -0.129967
2009-12-10 14:47:04 51°27.067 3°13.465 9.2819 3.500102 32.290512 -0.129967
2009-12-10 14:48:04 51°27.079 3°13.377 9.2831 3.500516 32.293134 -0.129967
2009-12-10 14:49:04 51°27.083 3°13.302 9.288 3.501034 32.296005 -0.129967
2009-12-10 14:50:04 51°27.099 3°13.206 9.2917 3.501448 32.299438 -0.129967
2009-12-10 14:51:04 51°27.115 3°13.111 9.2913 3.502484 32.305992 -0.129967
2009-12-10 14:52:04 51°27.132 3°13.014 9.2959 3.503106 32.311547 -0.129967
2009-12-10 14:53:04 51°27.146 3°12.931 9.2979 3.504349 32.320221 -0.164791
2009-12-10 14:54:04 51°27.153 3°12.848 9.3019 3.505282 32.328148 -0.164791
2009-12-10 14:55:04 51°27.165 3°12.76 9.303 3.50611 32.333387 -0.164791
2009-12-10 14:56:04 51°27.175 3°12.665 9.3083 3.507561 32.345806 -0.164791
2009-12-10 14:57:04 51°27.174 3°12.562 9.3075 3.508286 32.350795 -0.164791
2009-12-10 14:58:04 51°27.174 3°12.461 9.3108 3.509011 32.356597 -0.164791
2009-12-10 14:59:04 51°27.174 3°12.36 9.3138 3.509736 32.362399 -0.164791
2009-12-10 15:00:04 51°27.172 3°12.258 9.314 3.50984 32.361834 -0.164791
2009-12-10 15:01:04 51°27.171 3°12.165 9.3155 3.510565 32.367635 -0.164791
2009-12-10 15:02:04 51°27.161 3°12.062 9.3184 3.511601 32.376619 -0.164791
2009-12-10 15:03:04 51°27.147 3°11.959 9.3176 3.512223 32.380545 -0.164791
2009-12-10 15:04:04 51°27.124 3°11.865 9.3219 3.512948 32.386345 -0.164791
2009-12-10 15:05:04 51°27.085 3°11.757 9.3234 3.513259 32.387901 -0.164791
2009-12-10 15:06:04 51°27.045 3°11.647 9.3262 3.513777 32.391579 -0.164791
2009-12-10 15:07:04 51°27.006 3°11.55 9.328 3.513155 32.383587 -0.164791
2009-12-10 15:08:04 51°26.969 3°11.461 9.3279 3.513259 32.383021 -0.164791
2009-12-10 15:09:04 51°26.935 3°11.369 9.3304 3.513466 32.385142 -0.164791
2009-12-10 15:10:04 51°26.897 3°11.288 9.3318 3.514088 32.388254 -0.164791
2009-12-10 15:11:04 51°26.861 3°11.204 9.3321 3.51502 32.396987 -0.164791
2009-12-10 15:12:04 51°26.826 3°11.108 9.3339 3.515745 32.404412 -0.164791
2009-12-10 15:13:04 51°26.781 3°11.019 9.3341 3.516574 32.411271 -0.164791
2009-12-10 15:14:04 51°26.719 3°10.953 9.3347 3.517817 32.421558 -0.164791
2009-12-10 15:15:04 51°26.66 3°10.894 9.3348 3.51875 32.431919 -0.164791
2009-12-10 15:16:04 51°26.601 3°10.834 9.3334 3.519475 32.440159 -0.164791
2009-12-10 15:17:04 51°26.547 3°10.783 9.3339 3.520097 32.447339 -0.164791
2009-12-10 15:18:04 51°26.501 3°10.741 9.3354 3.520304 32.448646 -0.164791
2009-12-10 15:19:04 51°26.453 3°10.704 9.3383 3.521029 32.454443 -0.164791
2009-12-10 15:20:04 51°26.406 3°10.665 9.3381 3.521547 32.458118 -0.164791
2009-12-10 15:21:04 51°26.364 3°10.627 9.3395 3.52248 32.467666 -0.164791
2009-12-10 15:22:04 51°26.329 3°10.612 9.3384 3.523309 32.475338 -0.164791
2009-12-10 15:23:04 51°26.298 3°10.614 9.3407 3.523619 32.480151 -0.164791
2009-12-10 15:24:04 51°26.265 3°10.616 9.3435 3.524034 32.480318 -0.164791
2009-12-10 15:25:04 51°26.224 3°10.546 9.3402 3.524241 32.480809 -0.164791
2009-12-10 15:26:04 51°26.19 3°10.359 9.3379 3.525277 32.493049 -0.164791
2009-12-10 15:27:04 51°26.174 3°10.103 9.3162 3.528696 32.535413 -0.129967
2009-12-10 15:28:04 51°26.155 3°9.848 9.3051 3.531494 32.58289 -0.129967
2009-12-10 15:29:04 51°26.138 3°9.585 9.3088 3.534084 32.613541 -0.095143
2009-12-10 15:30:06 51°26.12 3°9.318 9.2944 3.535431 32.628993 -0.060319
2009-12-10 15:31:04 51°26.074 3°9.066 9.2838 3.533981 32.63052 -0.060319
2009-12-10 15:32:04 51°25.972 3°8.824 9.3251 3.533981 32.629699 -0.060319
2009-12-10 15:33:04 51°25.854 3°8.6 9.3605 3.538436 32.639301 -0.060319
2009-12-10 15:34:04 51°25.737 3°8.369 9.3938 3.540611 32.637834 -0.060319
2009-12-10 15:35:04 51°25.622 3°8.139 9.4138 3.542476 32.638101 -0.060319
2009-12-10 15:36:05 51°25.509 3°7.907 9.4418 3.544237 32.634857 -0.060319
2009-12-10 15:37:04 51°25.402 3°7.689 9.4516 3.546102 32.629411 -0.095143
2009-12-10 15:38:04 51°25.293 3°7.468 9.4602 3.547656 32.622434 -0.095143
2009-12-10 15:39:04 51°25.182 3°7.235 9.4893 3.547863 32.617207 -0.129967
2009-12-10 15:40:04 51°25.072 3°6.999 9.4924 3.549003 32.611722 -0.129967
2009-12-10 15:41:04 51°24.963 3°6.765 9.5121 3.549728 32.612606 -0.129967
2009-12-10 15:42:04 51°24.856 3°6.537 9.5088 3.550246 32.61219 -0.129967
2009-12-10 15:43:05 51°24.754 3°6.291 9.5263 3.550453 32.609417 -0.164791
2009-12-10 15:44:05 51°24.679 3°6.037 9.4984 3.54921 32.607317 -0.164791
2009-12-10 15:45:04 51°24.609 3°5.785 9.4828 3.548277 32.609207 -0.199615
2009-12-10 15:46:05 51°24.532 3°5.54 9.4867 3.548277 32.613284 -0.199615
2009-12-10 15:47:06 51°24.429 3°5.323 9.4871 3.548485 32.614585 -0.199615
2009-12-10 15:48:04 51°24.273 3°5.191 9.5386 3.549728 32.615052 -0.199615
2009-12-10 15:49:04 51°24.095 3°5.091 9.4824 3.549002 32.601128 -0.199615
2009-12-10 15:50:04 51°23.916 3°4.999 9.4288 3.539781 32.53303 -0.164791
2009-12-10 15:51:04 51°23.734 3°4.906 9.3828 3.519992 32.386923 -0.164791
2009-12-10 15:52:04 51°23.552 3°4.806 9.3503 3.50352 32.257411 -0.164791
2009-12-10 15:53:04 51°23.372 3°4.701 9.3283 3.49202 32.174557 -0.164791
2009-12-10 15:54:04 51°23.191 3°4.598 9.2999 3.487358 32.142201 -0.164791
2009-12-10 15:55:04 51°23.033 3°4.429 9.3048 3.48798 32.149371 -0.164791
2009-12-10 15:56:04 51°22.893 3°4.219 9.3155 3.491399 32.177896 -0.164791
2009-12-10 15:57:04 51°22.758 3°3.999 9.3063 3.493056 32.194053 -0.164791
2009-12-10 15:58:04 51°22.62 3°3.784 9.2967 3.488187 32.153916 -0.164791
2009-12-10 15:59:04 51°22.499 3°3.554 9.2908 3.484043 32.12846 -0.129967
2009-12-10 16:00:04 51°22.378 3°3.319 9.281 3.484043 32.126037 -0.095143
2009-12-10 16:01:04 51°22.257 3°3.084 9.2784 3.483007 32.121084 0.009329
2009-12-10 16:02:04 51°22.134 3°2.856 9.2191 3.465603 31.964636 0.113802
2009-12-10 16:03:04 51°22.01 3°2.627 9.1765 3.441466 31.715229 0.148626
2009-12-10 16:04:04 51°21.887 3°2.397 9.1129 3.428001 31.652422 0.148626
2009-12-10 16:05:04 51°21.763 3°2.167 9.0727 3.415364 31.574762 0.18345
2009-12-10 16:06:04 51°21.649 3°1.934 9.0421 3.402313 31.472752 0.18345
2009-12-10 16:07:04 51°21.536 3°1.699 9.0354 3.392162 31.386879 0.148626
2009-12-10 16:08:04 51°21.424 3°1.46 9.033 3.387501 31.346191 0.113802
2009-12-10 16:09:04 51°21.311 3°1.218 9.0241 3.383669 31.314793 0.078977
2009-12-10 16:10:04 51°21.197 3°0.976 9.017 3.380665 31.290306 0.078977
2009-12-10 16:11:04 51°21.085 3°0.73 9.0163 3.378283 31.2714 0.078977
2009-12-10 16:12:04 51°20.973 3°0.487 9.0108 3.376729 31.257829 0.078977
2009-12-10 16:13:04 51°20.862 3°0.243 9.007 3.374036 31.231769 0.044153
2009-12-10 16:14:04 51°20.767 2°59.986 9.0052 3.37124 31.206229 0.044153
2009-12-10 16:15:05 51°20.673 2°59.723 9.0022 3.369168 31.188129 0.009329
2009-12-10 16:16:04 51°20.583 2°59.466 8.9999 3.367304 31.171364 -0.025495
2009-12-10 16:17:04 51°20.491 2°59.205 9.0007 3.366786 31.166048 -0.025495
2009-12-10 16:18:04 51°20.399 2°58.944 9.0073 3.371344 31.210456 0.009329
2009-12-10 16:19:04 51°20.304 2°58.679 9.0116 3.373519 31.230411 0.009329
2009-12-10 16:20:04 51°20.211 2°58.417 9.0117 3.374658 31.23894 0.009329
2009-12-10 16:21:04 51°20.115 2°58.151 9.0163 3.375072 31.241609 -0.025495
2009-12-10 16:22:04 51°20.022 2°57.885 9.0256 3.377558 31.260789 -0.025495
2009-12-10 16:23:04 51°19.929 2°57.619 9.0374 3.379837 31.278631 -0.025495
2009-12-10 16:24:04 51°19.834 2°57.355 9.0442 3.382737 31.299675 -0.025495
2009-12-10 16:25:04 51°19.738 2°57.093 9.0523 3.385326 31.31911 -0.025495
2009-12-10 16:26:05 51°19.64 2°56.828 9.0596 3.387812 31.337476 -0.025495
2009-12-10 16:27:04 51°19.546 2°56.573 9.0727 3.391644 31.365682 -0.060319
2009-12-10 16:28:04 51°19.451 2°56.309 9.085 3.393508 31.377661 -0.060319
2009-12-10 16:29:04 51°19.356 2°56.044 9.0861 3.395683 31.392823 -0.060319
2009-12-10 16:30:04 51°19.261 2°55.779 9.0984 3.397548 31.406383 -0.060319
2009-12-10 16:31:04 51°19.166 2°55.519 9.1074 3.400137 31.424195 -0.060319
2009-12-10 16:32:04 51°19.069 2°55.251 9.1358 3.402934 31.444125 -0.060319
2009-12-10 16:33:04 51°18.972 2°54.992 9.1715 3.415156 31.542344 -0.060319
2009-12-10 16:34:04 51°18.874 2°54.728 9.2003 3.425307 31.619245 -0.095143
2009-12-10 16:35:04 51°18.78 2°54.466 9.2891 3.449236 31.815521 -0.095143
2009-12-10 16:36:04 51°18.683 2°54.204 9.3037 3.468814 31.955701 -0.129967
2009-12-10 16:37:04 51°18.586 2°53.947 9.3187 3.466017 31.923888 -0.129967
2009-12-10 16:38:04 51°18.49 2°53.682 9.3344 3.473372 31.980623 -0.129967
2009-12-10 16:39:04 51°18.393 2°53.424 9.3649 3.480831 32.035966 -0.129967
2009-12-10 16:40:04 51°18.302 2°53.166 9.445 3.491605 32.119495 -0.129967
2009-12-10 16:41:04 51°18.211 2°52.917 9.7665 3.555322 32.614315 -0.164791
2009-12-10 16:42:04 51°18.112 2°52.68 9.7892 3.615628 33.036297 -0.129967
2009-12-10 16:43:04 51°17.96 2°52.525 9.8201 3.623296 33.091265 -0.164791
2009-12-10 16:44:04 51°17.775 2°52.487 9.8519 3.631586 33.145115 -0.199615
2009-12-10 16:45:04 51°17.588 2°52.471 9.8844 3.639151 33.192361 -0.164791
2009-12-10 16:46:04 51°17.403 2°52.446 9.9171 3.646198 33.234296 -0.164791
2009-12-10 16:47:04 51°17.218 2°52.422 9.9584 3.653659 33.27874 -0.164791
2009-12-10 16:48:04 51°17.035 2°52.389 10.0107 3.655317 33.253708 -0.164791
2009-12-10 16:49:04 51°16.853 2°52.397 10.0485 3.671795 33.375331 -0.199615
2009-12-10 16:50:04 51°16.68 2°52.509 10.0658 3.675111 33.385884 -0.199615
2009-12-10 16:51:05 51°16.514 2°52.651 10.0847 3.675733 33.380683 -0.199615
2009-12-10 16:52:04 51°16.352 2°52.794 10.0969 3.67594 33.370479 -0.199615
2009-12-10 16:53:04 51°16.188 2°52.932 10.1077 3.677183 33.366654 -0.234439
2009-12-10 16:54:04 51°16.02 2°53.06 10.1299 3.676976 33.350644 -0.234439
2009-12-10 16:55:04 51°15.85 2°53.186 10.1353 3.675525 33.324552 -0.234439
2009-12-10 16:56:04 51°15.683 2°53.316 10.1371 3.673452 33.296291 -0.234439
2009-12-10 16:57:04 51°15.515 2°53.444 10.0966 3.666715 33.241397 -0.199615
2009-12-10 16:58:04 51°15.378 2°53.553 10.019 3.658114 33.188839 -0.199615
2009-12-10 16:59:04 51°15.301 2°53.693 9.9571 3.644124 33.11924 -0.164791
2009-12-10 17:00:04 51°15.242 2°53.816 9.9129 3.632829 33.07183 -0.164791
2009-12-10 17:01:04 51°15.189 2°53.927 9.8763 3.625989 33.037635 -0.164791
2009-12-10 17:02:04 51°15.143 2°54.03 9.8739 3.621015 33.001908 -0.164791
2009-12-10 17:03:04 51°15.106 2°54.118 9.8671 3.617181 32.969566 -0.164791
2009-12-10 17:04:04 51°15.076 2°54.189 9.8621 3.612414 32.924509 -0.164791
2009-12-10 17:05:04 51°15.053 2°54.247 9.8625 3.607751 32.885381 -0.164791
2009-12-10 17:06:04 51°15.035 2°54.301 9.8403 3.602777 32.843906 -0.164791
2009-12-10 17:07:04 51°15.019 2°54.351 9.8197 3.598529 32.809772 -0.164791
2009-12-10 17:08:04 51°15.004 2°54.401 9.8083 3.590861 32.747447 -0.164791
2009-12-10 17:09:04 51°14.984 2°54.461 9.8027 3.586509 32.713045 -0.164791
2009-12-10 17:10:04 51°14.929 2°54.549 9.7859 3.580706 32.666348 -0.164791
2009-12-10 17:11:04 51°14.793 2°54.683 9.794 3.5748 32.611308 -0.164791
2009-12-10 17:12:04 51°14.632 2°54.825 9.8028 3.568583 32.549084 -0.164791
2009-12-10 17:13:04 51°14.471 2°54.957 9.8033 3.560604 32.451338 -0.164791
2009-12-10 17:14:04 51°14.327 2°55.139 9.7704 3.532214 32.173539 -0.129967
2009-12-10 17:15:04 51°14.199 2°55.346 9.6905 3.414528 31.025005 -0.025495
2009-12-10 17:16:04 51°14.075 2°55.45 9.6451 3.227804 29.213177 0.078977
2009-12-10 17:17:04 51°13.967 2°55.525 9.5944 3.107295 28.029665 0.113802
2009-12-10 17:18:04 51°13.853 2°55.607 9.5568 2.89503 25.968641 0.148626
2009-12-10 17:19:08 51°13.753 2°55.718 9.545 2.787329 24.928817 0.148626
2009-12-10 17:20:08 51°13.705 2°55.809 9.4537 2.692581 24.008249 0.218274
2009-12-10 17:21:08 51°13.675 2°55.909 9.9648 2.446178 21.667324 0.253098
2009-12-10 17:22:08 51°13.663 2°55.954 10.4089 0.833161 6.63332 0.18345